Time;durP1;ratioP1;P1;durP2;ratioP2;P2;SDS_P1;SDS_P2;PMS_P1;PMS_P2;Temp;Humidity;BMP_temperature;BMP_pressure;BME280_temperature;BME280_humidity;BME280_pressure;Samples;Min_cycle;Max_cycle;Signal;HPM_P1;HPM_P2
2021/12/03 00:00:34;;;;;;;24.50;14.57;;;;;;;-1.40;100.00;95010.66;1022540;29;20110;-70
2021/12/03 00:01:08;;;;;;;21.26;13.34;;;;;;;-1.46;100.00;95005.31;1022286;29;20027;-69
2021/12/03 00:01:39;;;;;;;24.04;14.52;;;;;;;-1.47;100.00;95010.69;1018661;29;20027;-71
2021/12/03 00:02:10;;;;;;;22.62;14.24;;;;;;;-1.45;100.00;95016.41;1018485;29;20107;-71
2021/12/03 00:02:40;;;;;;;24.58;14.32;;;;;;;-1.50;100.00;95008.50;1019423;29;20612;-71
2021/12/03 00:03:11;;;;;;;22.27;13.48;;;;;;;-1.52;100.00;95005.34;1022313;28;20126;-71
2021/12/03 00:03:42;;;;;;;23.88;14.43;;;;;;;-1.53;100.00;95003.78;1028574;28;20030;-72
2021/12/03 00:04:12;;;;;;;21.75;14.15;;;;;;;-1.59;100.00;95009.75;1022565;28;20540;-71
2021/12/03 00:04:43;;;;;;;28.65;15.90;;;;;;;-1.77;100.00;94982.13;1018043;29;20019;-71
2021/12/03 00:05:13;;;;;;;21.67;14.02;;;;;;;-1.55;100.00;95016.81;1010392;29;20119;-71
2021/12/03 00:05:44;;;;;;;23.23;14.15;;;;;;;-1.54;100.00;95017.63;1018052;29;20035;-70
2021/12/03 00:06:15;;;;;;;25.67;16.15;;;;;;;-1.66;100.00;95005.41;1021639;28;20031;-70
2021/12/03 00:06:45;;;;;;;27.15;15.82;;;;;;;-1.58;100.00;95021.59;1022975;28;20063;-70
2021/12/03 00:07:15;;;;;;;24.17;15.18;;;;;;;-1.71;100.00;95005.25;1029928;28;20026;-71
2021/12/03 00:07:46;;;;;;;27.42;16.50;;;;;;;-1.69;100.00;95008.38;1014795;29;20050;-70
2021/12/03 00:08:18;;;;;;;25.80;15.25;;;;;;;-1.71;100.00;95012.97;1017845;29;20020;-69
2021/12/03 00:08:48;;;;;;;24.18;15.56;;;;;;;-1.70;100.00;95008.59;1021017;28;20031;-73
2021/12/03 00:09:19;;;;;;;21.67;14.40;;;;;;;-1.64;100.00;95017.25;1026430;28;20027;-70
2021/12/03 00:09:49;;;;;;;23.42;15.00;;;;;;;-1.65;100.00;95024.19;1030485;28;20060;-70
2021/12/03 00:10:23;;;;;;;23.00;14.80;;;;;;;-1.68;100.00;95022.84;1022431;29;20023;-70
2021/12/03 00:10:56;;;;;;;22.88;15.06;;;;;;;-1.69;100.00;95023.81;1026293;28;20054;-70
2021/12/03 00:11:27;;;;;;;26.08;15.34;;;;;;;-1.69;100.00;95016.09;1027585;28;20042;-72
2021/12/03 00:11:57;;;;;;;23.30;14.50;;;;;;;-1.71;100.00;95020.66;1026186;28;20614;-70
2021/12/03 00:12:28;;;;;;;25.60;15.45;;;;;;;-1.73;100.00;95025.22;1015647;29;20086;-70
2021/12/03 00:12:58;;;;;;;29.85;16.13;;;;;;;-1.74;100.00;95026.22;1018999;28;20039;-70
2021/12/03 00:13:30;;;;;;;25.65;17.42;;;;;;;-1.81;100.00;95022.06;1026285;28;20412;-70
2021/12/03 00:14:00;;;;;;;27.96;16.92;;;;;;;-1.81;100.00;95022.88;1030450;28;20018;-69
2021/12/03 00:14:32;;;;;;;28.40;16.45;;;;;;;-1.81;100.00;95022.06;1025985;28;20480;-70
2021/12/03 00:15:04;;;;;;;31.34;16.62;;;;;;;-1.77;100.00;95024.06;1026114;28;20459;-70
2021/12/03 00:15:35;;;;;;;25.86;15.86;;;;;;;-1.78;100.00;95031.94;1027844;28;20049;-70
2021/12/03 00:16:06;;;;;;;25.63;15.75;;;;;;;-1.81;100.00;95022.06;1026410;28;20026;-70
2021/12/03 00:16:36;;;;;;;25.30;16.42;;;;;;;-1.79;100.00;95031.16;1019728;29;20520;-70
2021/12/03 00:17:06;;;;;;;29.42;16.17;;;;;;;-1.84;100.00;95018.16;1017910;29;20509;-72
2021/12/03 00:17:37;;;;;;;28.00;16.67;;;;;;;-1.80;100.00;95033.97;1022120;28;20058;-71
2021/12/03 00:18:07;;;;;;;26.25;15.95;;;;;;;-1.91;100.00;95017.38;1022299;28;20039;-70
2021/12/03 00:18:38;;;;;;;30.92;17.20;;;;;;;-1.80;100.00;95026.25;1018713;29;20686;-70
2021/12/03 00:19:08;;;;;;;25.13;16.02;;;;;;;-1.82;100.00;95025.63;1017154;29;20027;-70
2021/12/03 00:19:39;;;;;;;28.95;16.25;;;;;;;-1.77;100.00;95034.34;1028317;28;20478;-71
2021/12/03 00:20:12;;;;;;;27.58;15.68;;;;;;;-1.86;100.00;95025.25;1025729;28;20476;-71
2021/12/03 00:20:42;;;;;;;26.16;16.02;;;;;;;-1.73;100.00;95043.22;1028996;28;20564;-72
2021/12/03 00:21:13;;;;;;;30.70;17.27;;;;;;;-1.71;100.00;95043.00;1026491;28;20131;-71
2021/12/03 00:21:43;;;;;;;30.25;16.13;;;;;;;-1.70;100.00;95045.38;1028739;28;20018;-69
2021/12/03 00:22:14;;;;;;;26.83;15.88;;;;;;;-1.71;100.00;95043.81;1029420;28;20411;-69
2021/12/03 00:22:46;;;;;;;26.90;17.45;;;;;;;-1.76;100.00;95040.25;1030475;28;20023;-70
2021/12/03 00:23:16;;;;;;;26.74;17.14;;;;;;;-1.81;100.00;95032.34;1025643;28;20019;-71
2021/12/03 00:23:47;;;;;;;31.85;17.50;;;;;;;-1.74;100.00;95046.78;1022322;29;20019;-70
2021/12/03 00:24:17;;;;;;;28.33;17.73;;;;;;;-1.73;100.00;95058.66;1022541;28;20019;-71
2021/12/03 00:24:48;;;;;;;31.88;18.02;;;;;;;-1.73;100.00;95048.34;1023656;28;20034;-69
2021/12/03 00:25:18;;;;;;;29.20;16.38;;;;;;;-1.85;100.00;95031.97;1021887;29;20023;-71
2021/12/03 00:25:49;;;;;;;33.17;19.00;;;;;;;-1.77;100.00;95047.19;1018241;29;20058;-70
2021/12/03 00:26:19;;;;;;;29.83;17.48;;;;;;;-1.74;100.00;95049.34;1018314;29;20020;-69
2021/12/03 00:26:49;;;;;;;33.50;18.02;;;;;;;-1.74;100.00;95051.94;1021785;28;20028;-69
2021/12/03 00:27:20;;;;;;;29.00;16.83;;;;;;;-1.85;100.00;95042.25;1022356;28;20477;-72
2021/12/03 00:27:50;;;;;;;32.75;17.38;;;;;;;-1.75;100.00;95054.69;1026225;28;20397;-70
2021/12/03 00:28:21;;;;;;;29.65;17.80;;;;;;;-1.80;100.00;95050.16;1026491;28;20097;-70
2021/12/03 00:28:51;;;;;;;27.52;17.00;;;;;;;-1.77;100.00;95056.69;1026591;28;20019;-71
2021/12/03 00:29:22;;;;;;;31.10;18.02;;;;;;;-1.72;100.00;95062.78;1026823;28;20022;-70
2021/12/03 00:29:53;;;;;;;31.35;18.33;;;;;;;-1.66;100.00;95066.34;1022388;29;20030;-70
2021/12/03 00:30:23;;;;;;;31.33;17.40;;;;;;;-1.67;100.00;95065.56;1022402;28;20787;-70
2021/12/03 00:30:54;;;;;;;32.92;19.02;;;;;;;-1.67;100.00;95062.97;1026790;28;20623;-69
2021/12/03 00:31:24;;;;;;;33.60;18.67;;;;;;;-1.68;100.00;95066.56;1026649;28;20031;-71
2021/12/03 00:31:54;;;;;;;32.25;18.38;;;;;;;-1.62;100.00;95069.28;1026332;28;20022;-72
2021/12/03 00:32:25;;;;;;;30.85;18.55;;;;;;;-1.63;100.00;95073.66;1026532;28;20037;-70
2021/12/03 00:32:55;;;;;;;38.05;19.50;;;;;;;-1.60;100.00;95072.47;1022437;28;20031;-70
2021/12/03 00:33:26;;;;;;;28.80;18.17;;;;;;;-1.68;100.00;95063.16;1022766;29;20027;-71
2021/12/03 00:33:56;;;;;;;30.27;18.08;;;;;;;-1.61;100.00;95070.88;1014662;29;20042;-69
2021/12/03 00:34:27;;;;;;;29.92;18.25;;;;;;;-1.66;100.00;95061.97;1026442;28;20027;-70
2021/12/03 00:34:57;;;;;;;27.10;17.63;;;;;;;-1.58;100.00;95078.97;1021873;29;20027;-72
2021/12/03 00:35:28;;;;;;;28.90;17.73;;;;;;;-1.64;100.00;95071.28;1022559;29;20086;-70
2021/12/03 00:36:03;;;;;;;30.50;17.27;;;;;;;-1.55;100.00;95082.91;1017582;29;20055;-71
2021/12/03 00:36:34;;;;;;;31.80;17.30;;;;;;;-1.63;100.00;95070.28;1020856;29;20048;-71
2021/12/03 00:37:04;;;;;;;29.63;17.25;;;;;;;-1.58;100.00;95083.31;1022577;29;20039;-70
2021/12/03 00:37:36;;;;;;;34.25;17.95;;;;;;;-1.59;100.00;95081.75;1022991;28;20209;-74
2021/12/03 00:38:07;;;;;;;32.20;18.34;;;;;;;-1.58;100.00;95088.47;1021529;29;20802;-72
2021/12/03 00:38:43;;;;;;;28.45;17.45;;;;;;;-1.60;100.00;95091.25;1024788;28;20118;-73
2021/12/03 00:39:14;;;;;;;29.54;18.20;;;;;;;-1.72;100.00;95078.22;1024471;28;20045;-70
2021/12/03 00:39:44;;;;;;;32.33;18.30;;;;;;;-1.63;100.00;95093.44;1030800;28;20026;-70
2021/12/03 00:40:21;;;;;;;31.83;18.02;;;;;;;-1.71;100.00;95079.81;1030241;28;20030;-72
2021/12/03 00:40:52;;;;;;;27.80;16.68;;;;;;;-1.63;100.00;95088.31;1022319;29;20452;-71
2021/12/03 00:41:22;;;;;;;30.90;17.60;;;;;;;-1.66;100.00;95085.13;1021977;28;20035;-70
2021/12/03 00:41:59;;;;;;;32.78;18.35;;;;;;;-1.74;100.00;95075.06;1023407;28;20023;-71
2021/12/03 00:42:29;;;;;;;30.26;17.74;;;;;;;-1.69;100.00;95088.09;1018261;29;20031;-70
2021/12/03 00:43:00;;;;;;;28.85;16.83;;;;;;;-1.67;100.00;95091.28;1022150;28;20035;-70
2021/12/03 00:43:30;;;;;;;31.35;18.25;;;;;;;-1.68;100.00;95088.88;1014687;29;20868;-70
2021/12/03 00:44:01;;;;;;;26.27;16.35;;;;;;;-1.69;100.00;95088.09;1014464;29;20028;-72
2021/12/03 00:44:31;;;;;;;33.20;18.92;;;;;;;-1.71;100.00;95090.09;1020140;28;20047;-71
2021/12/03 00:45:03;;;;;;;36.72;18.27;;;;;;;-1.88;100.00;95070.94;1019910;28;20035;-70
2021/12/03 00:45:34;;;;;;;32.16;17.94;;;;;;;-1.95;100.00;95055.53;1026438;28;20018;-70
2021/12/03 00:46:06;;;;;;;32.44;18.36;;;;;;;-1.85;100.00;95080.03;1022347;28;20047;-72
2021/12/03 00:46:36;;;;;;;31.10;18.36;;;;;;;-1.80;100.00;95096.44;1016729;29;20023;-70
2021/12/03 00:47:06;;;;;;;35.85;19.17;;;;;;;-1.83;100.00;95102.00;1023393;28;20615;-71
2021/12/03 00:47:37;;;;;;;33.38;20.08;;;;;;;-1.94;100.00;95082.84;1026457;28;20027;-70
2021/12/03 00:48:08;;;;;;;33.08;17.70;;;;;;;-1.88;100.00;95098.44;1030057;28;20041;-72
2021/12/03 00:48:38;;;;;;;32.40;19.08;;;;;;;-2.00;100.00;95086.19;1022400;29;20038;-70
2021/12/03 00:49:09;;;;;;;32.58;18.30;;;;;;;-2.00;100.00;95087.97;1022458;28;20015;-71
2021/12/03 00:49:39;;;;;;;33.88;19.13;;;;;;;-1.94;100.00;95097.47;1027689;28;20125;-70
2021/12/03 00:50:11;;;;;;;31.67;17.80;;;;;;;-1.88;100.00;95109.50;1027949;28;20155;-72
2021/12/03 00:50:42;;;;;;;31.60;17.88;;;;;;;-1.88;100.00;95095.84;1026241;28;20026;-71
2021/12/03 00:51:13;;;;;;;32.42;19.40;;;;;;;-1.86;100.00;95111.88;1024158;28;20069;-72
2021/12/03 00:51:44;;;;;;;32.66;18.04;;;;;;;-1.89;100.00;95107.94;1022011;28;20623;-72
2021/12/03 00:52:14;;;;;;;30.05;17.70;;;;;;;-1.98;100.00;95091.94;1018486;29;20040;-70
2021/12/03 00:52:45;;;;;;;32.25;18.20;;;;;;;-1.96;100.00;95096.88;1022389;28;20027;-70
2021/12/03 00:53:15;;;;;;;31.23;18.58;;;;;;;-1.89;100.00;95107.94;1018399;28;20529;-72
2021/12/03 00:53:46;;;;;;;37.42;19.38;;;;;;;-1.90;100.00;95112.28;1022446;29;20054;-71
2021/12/03 00:54:16;;;;;;;33.00;19.42;;;;;;;-1.92;100.00;95121.19;1014822;29;20111;-69
2021/12/03 00:54:49;;;;;;;33.38;19.13;;;;;;;-2.04;100.00;95104.81;1025958;28;20023;-70
2021/12/03 00:55:20;;;;;;;31.60;18.50;;;;;;;-1.99;100.00;95113.47;1026818;28;20612;-69
2021/12/03 00:55:50;;;;;;;35.08;19.50;;;;;;;-2.06;100.00;95106.78;1026539;28;20480;-71
2021/12/03 00:56:20;;;;;;;31.02;18.50;;;;;;;-2.03;100.00;95116.66;1025047;28;20023;-70
2021/12/03 00:56:51;;;;;;;34.67;19.27;;;;;;;-2.08;100.00;95111.31;1022526;29;20019;-71
2021/12/03 00:57:21;;;;;;;35.45;19.35;;;;;;;-2.03;100.00;95122.59;1022540;28;20475;-72
2021/12/03 00:57:52;;;;;;;38.72;20.65;;;;;;;-2.03;100.00;95125.16;1018580;29;20576;-70
2021/12/03 00:58:22;;;;;;;34.33;19.52;;;;;;;-2.07;100.00;95128.31;1019596;28;20409;-71
2021/12/03 00:58:53;;;;;;;33.10;18.15;;;;;;;-1.98;100.00;95130.50;1024589;28;20076;-70
2021/12/03 00:59:23;;;;;;;35.97;20.00;;;;;;;-1.99;100.00;95128.13;1026618;28;20529;-70
2021/12/03 00:59:54;;;;;;;36.47;19.05;;;;;;;-1.94;100.00;95129.09;1030564;28;20105;-71
2021/12/03 01:00:27;;;;;;;34.22;18.38;;;;;;;-1.87;100.00;95141.94;1033034;28;20085;-70
2021/12/03 01:00:57;;;;;;;30.08;17.90;;;;;;;-1.84;100.00;95136.41;1030136;28;20033;-71
2021/12/03 01:01:28;;;;;;;33.15;19.80;;;;;;;-1.87;100.00;95129.09;1024039;28;20540;-72
2021/12/03 01:01:58;;;;;;;36.50;19.90;;;;;;;-1.86;100.00;95135.81;1022460;29;20023;-72
2021/12/03 01:02:29;;;;;;;31.58;17.92;;;;;;;-1.84;100.00;95135.63;1028812;28;20025;-69
2021/12/03 01:03:00;;;;;;;30.83;17.77;;;;;;;-1.86;100.00;95130.66;1021857;28;20034;-70
2021/12/03 01:03:31;;;;;;;32.80;17.92;;;;;;;-1.92;100.00;95121.19;1020633;29;20115;-70
2021/12/03 01:04:01;;;;;;;28.92;17.77;;;;;;;-1.78;100.00;95145.09;1026563;28;20481;-72
2021/12/03 01:04:32;;;;;;;30.60;17.48;;;;;;;-1.73;100.00;95148.66;1026052;28;20102;-71
2021/12/03 01:05:03;;;;;;;34.53;17.80;;;;;;;-1.78;100.00;95140.72;1030209;28;20034;-70
2021/12/03 01:05:34;;;;;;;27.33;16.30;;;;;;;-1.71;100.00;95151.81;1026293;28;20550;-70
2021/12/03 01:06:04;;;;;;;29.85;17.27;;;;;;;-1.70;100.00;95145.69;1022631;29;20114;-72
2021/12/03 01:06:34;;;;;;;25.85;16.25;;;;;;;-1.70;100.00;95147.47;1026407;28;20045;-69
2021/12/03 01:07:05;;;;;;;27.40;16.92;;;;;;;-1.64;100.00;95158.72;1018601;29;20118;-72
2021/12/03 01:07:36;;;;;;;29.10;17.38;;;;;;;-1.72;100.00;95137.38;1013962;29;20128;-73
2021/12/03 01:08:06;;;;;;;26.50;16.85;;;;;;;-1.64;100.00;95156.16;1029440;28;20030;-72
2021/12/03 01:08:37;;;;;;;28.08;16.92;;;;;;;-1.63;100.00;95152.59;1026432;28;20022;-70
2021/12/03 01:09:07;;;;;;;28.70;18.20;;;;;;;-1.68;100.00;95150.63;1022775;28;20038;-72
2021/12/03 01:09:38;;;;;;;28.30;16.67;;;;;;;-1.62;100.00;95154.16;1022346;29;20519;-72
2021/12/03 01:10:08;;;;;;;29.58;17.08;;;;;;;-1.59;100.00;95164.06;1023245;28;20030;-71
2021/12/03 01:10:39;;;;;;;29.60;16.92;;;;;;;-1.57;100.00;95156.94;1022576;29;20747;-72
2021/12/03 01:11:10;;;;;;;24.60;16.23;;;;;;;-1.57;100.00;95162.09;1024013;28;20029;-70
2021/12/03 01:11:40;;;;;;;27.83;17.60;;;;;;;-1.56;100.00;95166.22;1021925;28;20054;-72
2021/12/03 01:12:11;;;;;;;27.70;17.88;;;;;;;-1.57;100.00;95156.94;1019483;28;20510;-70
2021/12/03 01:12:41;;;;;;;31.75;17.35;;;;;;;-1.64;100.00;95156.16;1026485;28;20496;-69
2021/12/03 01:13:12;;;;;;;28.50;16.90;;;;;;;-1.57;100.00;95169.81;1026364;28;20027;-70
2021/12/03 01:13:43;;;;;;;28.90;16.60;;;;;;;-1.58;100.00;95165.63;1026180;28;20027;-72
2021/12/03 01:14:13;;;;;;;27.38;16.52;;;;;;;-1.68;100.00;95150.63;1026708;28;20038;-70
2021/12/03 01:14:44;;;;;;;28.20;16.92;;;;;;;-1.58;100.00;95168.22;1026165;28;20107;-71
2021/12/03 01:15:17;;;;;;;26.76;15.98;;;;;;;-1.64;100.00;95153.56;1022204;29;20051;-71
2021/12/03 01:15:47;;;;;;;26.66;16.02;;;;;;;-1.57;100.00;95167.22;1018491;29;20042;-72
2021/12/03 01:16:18;;;;;;;26.55;15.57;;;;;;;-1.56;100.00;95169.59;1022354;29;20035;-71
2021/12/03 01:16:48;;;;;;;26.73;16.30;;;;;;;-1.63;100.00;95155.16;1022988;28;20126;-71
2021/12/03 01:17:19;;;;;;;28.38;17.05;;;;;;;-1.54;100.00;95167.63;1034690;28;20030;-70
2021/12/03 01:17:50;;;;;;;31.17;18.75;;;;;;;-1.54;100.00;95171.94;1034496;28;20026;-71
2021/12/03 01:18:20;;;;;;;25.10;14.82;;;;;;;-1.60;100.00;95159.91;1026478;28;20673;-71
2021/12/03 01:18:51;;;;;;;25.35;16.25;;;;;;;-1.54;100.00;95169.38;1022367;28;20027;-72
2021/12/03 01:19:21;;;;;;;29.40;15.82;;;;;;;-1.64;100.00;95151.00;1026673;28;20440;-69
2021/12/03 01:19:51;;;;;;;28.13;16.55;;;;;;;-1.55;100.00;95176.31;1026348;28;20517;-71
2021/12/03 01:20:22;;;;;;;25.30;16.38;;;;;;;-1.55;100.00;95171.16;1030089;28;20033;-72
2021/12/03 01:20:52;;;;;;;25.65;15.95;;;;;;;-1.60;100.00;95162.50;1030249;28;20030;-73
2021/12/03 01:21:23;;;;;;;29.38;17.10;;;;;;;-1.54;100.00;95169.38;1018591;29;20398;-70
2021/12/03 01:21:54;;;;;;;29.20;16.83;;;;;;;-1.54;100.00;95177.09;1014330;29;20035;-71
2021/12/03 01:22:24;;;;;;;29.92;17.17;;;;;;;-1.53;100.00;95173.56;1022421;29;20031;-70
2021/12/03 01:22:54;;;;;;;24.23;15.35;;;;;;;-1.58;100.00;95168.22;1022439;28;20087;-71
2021/12/03 01:23:25;;;;;;;23.45;16.30;;;;;;;-1.64;100.00;95158.72;1018779;28;20083;-73
2021/12/03 01:23:55;;;;;;;28.40;16.75;;;;;;;-1.56;100.00;95174.75;1017584;29;20028;-71
2021/12/03 01:24:26;;;;;;;29.77;17.15;;;;;;;-1.58;100.00;95173.34;1018587;29;20091;-69
2021/12/03 01:24:56;;;;;;;26.50;16.48;;;;;;;-1.56;100.00;95179.88;1021926;28;20034;-71
2021/12/03 01:25:27;;;;;;;26.92;16.25;;;;;;;-1.63;100.00;95168.03;1019717;29;20028;-71
2021/12/03 01:25:57;;;;;;;26.25;15.60;;;;;;;-1.56;100.00;95174.75;1022419;29;20035;-71
2021/12/03 01:26:28;;;;;;;28.40;15.93;;;;;;;-1.56;100.00;95176.53;1023377;28;20448;-71
2021/12/03 01:26:59;;;;;;;27.46;16.20;;;;;;;-1.56;100.00;95177.31;1021376;28;20031;-72
2021/12/03 01:27:30;;;;;;;27.45;15.98;;;;;;;-1.55;100.00;95184.03;1026541;28;20038;-72
2021/12/03 01:28:01;;;;;;;27.05;15.70;;;;;;;-1.61;100.00;95166.03;1029702;28;20034;-71
2021/12/03 01:28:31;;;;;;;27.42;16.94;;;;;;;-1.59;100.00;95179.50;1018630;29;20027;-71
2021/12/03 01:29:02;;;;;;;36.30;17.33;;;;;;;-1.53;100.00;95189.00;1014421;29;20044;-70
2021/12/03 01:29:33;;;;;;;28.46;16.00;;;;;;;-1.55;100.00;95180.66;1020967;29;20640;-74
2021/12/03 01:30:04;;;;;;;26.33;16.50;;;;;;;-1.55;100.00;95186.59;1022550;29;20038;-72
2021/12/03 01:30:35;;;;;;;28.02;16.46;;;;;;;-1.58;100.00;95175.94;1018018;29;20036;-72
2021/12/03 01:31:05;;;;;;;30.67;17.25;;;;;;;-1.54;100.00;95187.38;1022718;28;20039;-72
2021/12/03 01:31:36;;;;;;;28.50;15.57;;;;;;;-1.54;100.00;95190.78;1022559;29;20037;-71
2021/12/03 01:32:06;;;;;;;27.83;16.95;;;;;;;-1.57;100.00;95182.66;1021293;29;20129;-72
2021/12/03 01:32:37;;;;;;;30.88;17.42;;;;;;;-1.53;100.00;95186.41;1017338;29;20027;-71
2021/12/03 01:33:07;;;;;;;26.52;16.95;;;;;;;-1.63;100.00;95176.53;1019162;29;20437;-71
2021/12/03 01:33:38;;;;;;;27.90;16.48;;;;;;;-1.55;100.00;95190.97;1024212;28;20023;-71
2021/12/03 01:34:08;;;;;;;32.22;17.58;;;;;;;-1.62;100.00;95185.03;1023441;28;20690;-69
2021/12/03 01:34:39;;;;;;;29.70;17.25;;;;;;;-1.57;100.00;95201.47;1016183;29;20525;-71
2021/12/03 01:35:09;;;;;;;26.17;15.95;;;;;;;-1.60;100.00;95188.22;1019183;29;20023;-71
2021/12/03 01:35:40;;;;;;;29.67;16.85;;;;;;;-1.66;100.00;95177.72;1019246;29;20016;-70
2021/12/03 01:36:11;;;;;;;26.30;16.38;;;;;;;-1.62;100.00;95190.19;1027394;28;20023;-70
2021/12/03 01:36:41;;;;;;;25.92;16.38;;;;;;;-1.51;100.00;95194.72;1026671;28;20034;-71
2021/12/03 01:37:11;;;;;;;27.13;15.88;;;;;;;-1.53;100.00;95196.72;1027414;28;20023;-71
2021/12/03 01:37:42;;;;;;;25.58;15.70;;;;;;;-1.51;100.00;95197.28;1031321;28;20038;-71
2021/12/03 01:38:13;;;;;;;29.45;15.95;;;;;;;-1.64;100.00;95182.69;1028570;28;20023;-70
2021/12/03 01:38:43;;;;;;;25.20;15.13;;;;;;;-1.53;100.00;95194.91;1027297;28;20014;-71
2021/12/03 01:39:14;;;;;;;23.98;15.40;;;;;;;-1.53;100.00;95200.06;1023211;29;20023;-69
2021/12/03 01:39:44;;;;;;;30.50;17.45;;;;;;;-1.51;100.00;95203.25;1023829;28;20023;-71
2021/12/03 01:40:17;;;;;;;28.27;16.52;;;;;;;-1.59;100.00;95185.44;1027449;28;20070;-70
2021/12/03 01:40:48;;;;;;;28.40;15.96;;;;;;;-1.59;100.00;95184.63;1027629;28;20432;-70
2021/12/03 01:41:18;;;;;;;28.42;15.88;;;;;;;-1.53;100.00;95194.13;1030911;28;20022;-70
2021/12/03 01:41:49;;;;;;;22.95;15.50;;;;;;;-1.52;100.00;95200.84;1023145;29;20416;-71
2021/12/03 01:42:19;;;;;;;25.95;15.77;;;;;;;-1.52;100.00;95196.50;1023627;28;20023;-71
2021/12/03 01:42:50;;;;;;;26.77;16.77;;;;;;;-1.61;100.00;95186.59;1023394;28;20638;-71
2021/12/03 01:43:23;;;;;;;25.30;14.85;;;;;;;-1.54;100.00;95202.81;1026841;28;20030;-69
2021/12/03 01:43:59;;;;;;;26.34;15.84;;;;;;;-1.54;100.00;95197.69;1031236;28;20049;-70
2021/12/03 01:44:30;;;;;;;28.80;15.02;;;;;;;-1.55;100.00;95199.47;1028143;28;20023;-68
2021/12/03 01:45:00;;;;;;;24.98;14.73;;;;;;;-1.51;100.00;95198.09;1029079;28;20042;-71
2021/12/03 01:45:32;;;;;;;24.50;15.02;;;;;;;-1.59;100.00;95194.94;1031251;28;20676;-71
2021/12/03 01:46:05;;;;;;;24.36;14.22;;;;;;;-1.49;100.00;95203.03;1031660;28;20026;-71
2021/12/03 01:46:36;;;;;;;23.48;13.22;;;;;;;-1.54;100.00;95197.69;1030768;28;20027;-70
2021/12/03 01:47:06;;;;;;;22.38;14.00;;;;;;;-1.51;100.00;95205.00;1026672;28;20015;-70
2021/12/03 01:47:37;;;;;;;27.98;15.32;;;;;;;-1.71;100.00;95174.16;1027215;28;20956;-69
2021/12/03 01:48:07;;;;;;;24.42;14.65;;;;;;;-1.55;100.00;95196.09;1025451;28;20118;-71
2021/12/03 01:48:38;;;;;;;24.30;15.50;;;;;;;-1.56;100.00;95197.88;1018726;29;20051;-73
2021/12/03 01:49:11;;;;;;;21.10;14.16;;;;;;;-1.56;100.00;95200.47;1011512;29;20473;-71
2021/12/03 01:49:41;;;;;;;25.48;14.66;;;;;;;-1.52;100.00;95200.84;1019326;29;20028;-71
2021/12/03 01:50:13;;;;;;;26.55;15.27;;;;;;;-1.50;100.00;95201.44;1023139;28;20063;-71
2021/12/03 01:50:44;;;;;;;21.46;13.32;;;;;;;-1.48;100.00;95204.59;1027557;28;20019;-70
2021/12/03 01:51:14;;;;;;;26.85;15.55;;;;;;;-1.47;100.00;95204.41;1027139;28;20026;-72
2021/12/03 01:51:45;;;;;;;23.92;15.05;;;;;;;-1.51;100.00;95202.44;1027169;28;20638;-72
2021/12/03 01:52:15;;;;;;;24.05;15.25;;;;;;;-1.60;100.00;95177.94;1031267;28;20018;-71
2021/12/03 01:52:46;;;;;;;27.60;15.45;;;;;;;-1.59;100.00;95185.44;1027286;28;20177;-71
2021/12/03 01:53:18;;;;;;;24.33;13.73;;;;;;;-1.53;100.00;95196.72;1026659;28;20031;-72
2021/12/03 01:53:48;;;;;;;23.84;15.42;;;;;;;-1.51;100.00;95203.25;1023255;29;20100;-71
2021/12/03 01:54:19;;;;;;;23.88;14.95;;;;;;;-1.51;100.00;95197.28;1023820;29;20083;-71
2021/12/03 01:54:49;;;;;;;22.02;14.50;;;;;;;-1.59;100.00;95189.78;1019542;28;20100;-69
2021/12/03 01:55:19;;;;;;;21.15;14.18;;;;;;;-1.59;100.00;95195.72;1021770;29;20023;-69
2021/12/03 01:55:51;;;;;;;24.17;13.98;;;;;;;-1.61;100.00;95189.19;1023495;28;20031;-71
2021/12/03 01:56:21;;;;;;;23.76;15.02;;;;;;;-1.51;100.00;95197.28;1023599;28;20030;-70
2021/12/03 01:56:52;;;;;;;24.63;14.55;;;;;;;-1.51;100.00;95208.38;1027150;28;20027;-70
2021/12/03 01:57:22;;;;;;;25.75;14.38;;;;;;;-1.55;100.00;95191.75;1027088;28;20034;-71
2021/12/03 01:57:52;;;;;;;21.83;14.13;;;;;;;-1.58;100.00;95178.50;1019398;29;20031;-72
2021/12/03 01:58:23;;;;;;;26.17;14.93;;;;;;;-1.47;100.00;95190.75;1023231;28;20019;-71
2021/12/03 01:58:53;;;;;;;19.20;13.40;;;;;;;-1.49;100.00;95198.66;1027353;28;20026;-69
2021/12/03 01:59:24;;;;;;;22.30;14.35;;;;;;;-1.50;100.00;95196.31;1030367;28;20022;-72
2021/12/03 01:59:57;;;;;;;23.90;14.38;;;;;;;-1.52;100.00;95191.34;1023557;29;20034;-71
2021/12/03 02:00:33;;;;;;;21.70;14.00;;;;;;;-1.53;100.00;95189.00;1027382;28;20019;-71
2021/12/03 02:01:12;;;;;;;19.78;13.08;;;;;;;-1.59;100.00;95193.16;1023406;28;20027;-72
2021/12/03 02:01:42;;;;;;;23.04;14.20;;;;;;;-1.53;100.00;95197.50;1023586;29;20071;-72
2021/12/03 02:02:13;;;;;;;24.58;14.57;;;;;;;-1.60;100.00;95185.63;1021931;29;20090;-71
2021/12/03 02:02:43;;;;;;;20.63;13.60;;;;;;;-1.56;100.00;95194.53;1022962;28;20075;-70
2021/12/03 02:03:14;;;;;;;24.65;14.25;;;;;;;-1.64;100.00;95174.16;1027566;28;20399;-70
2021/12/03 02:03:47;;;;;;;22.32;14.20;;;;;;;-1.64;100.00;95184.44;1027517;28;20500;-70
2021/12/03 02:04:17;;;;;;;23.56;13.76;;;;;;;-1.58;100.00;95202.44;1023791;29;20760;-71
2021/12/03 02:04:48;;;;;;;22.10;14.13;;;;;;;-1.59;100.00;95200.84;1021958;28;20034;-71
2021/12/03 02:05:18;;;;;;;22.48;13.75;;;;;;;-1.63;100.00;95188.59;1031615;28;20114;-73
2021/12/03 02:05:49;;;;;;;26.77;14.52;;;;;;;-1.71;100.00;95181.88;1023372;28;20034;-71
2021/12/03 02:06:19;;;;;;;21.33;13.68;;;;;;;-1.59;100.00;95200.06;1023533;29;20019;-70
2021/12/03 02:06:50;;;;;;;23.65;13.43;;;;;;;-1.61;100.00;95199.47;1019612;29;20131;-70
2021/12/03 02:07:20;;;;;;;26.30;14.25;;;;;;;-1.61;100.00;95200.28;1031588;28;20026;-72
2021/12/03 02:07:51;;;;;;;23.98;14.60;;;;;;;-1.58;100.00;95202.44;1019306;28;20075;-69
2021/12/03 02:08:21;;;;;;;25.50;13.77;;;;;;;-1.64;100.00;95197.28;1026759;28;20101;-70
2021/12/03 02:08:52;;;;;;;20.48;13.55;;;;;;;-1.63;100.00;95193.75;1027287;28;20018;-72
2021/12/03 02:09:23;;;;;;;20.34;12.70;;;;;;;-1.66;100.00;95188.00;1029681;28;20109;-72
2021/12/03 02:09:54;;;;;;;26.75;14.32;;;;;;;-1.52;100.00;95206.00;1027021;28;20019;-70
2021/12/03 02:10:24;;;;;;;21.30;12.65;;;;;;;-1.54;100.00;95205.38;1019274;29;20032;-70
2021/12/03 02:10:54;;;;;;;21.80;14.13;;;;;;;-1.52;100.00;95206.00;1023681;29;20095;-70
2021/12/03 02:11:26;;;;;;;23.30;14.10;;;;;;;-1.53;100.00;95196.72;1023127;29;20023;-71
2021/12/03 02:11:56;;;;;;;25.12;13.96;;;;;;;-1.49;100.00;95208.16;1019535;29;20048;-70
2021/12/03 02:12:26;;;;;;;19.58;12.80;;;;;;;-1.54;100.00;95197.69;1031232;28;20073;-72
2021/12/03 02:12:57;;;;;;;19.92;12.75;;;;;;;-1.49;100.00;95206.38;1026547;28;20027;-70
2021/12/03 02:13:27;;;;;;;19.77;12.38;;;;;;;-1.51;100.00;95205.81;1027290;28;20034;-70
2021/12/03 02:13:58;;;;;;;21.30;13.35;;;;;;;-1.49;100.00;95205.59;1027623;28;20623;-71
2021/12/03 02:14:28;;;;;;;26.13;13.20;;;;;;;-1.53;100.00;95204.44;1023555;28;20440;-72
2021/12/03 02:14:59;;;;;;;22.48;12.93;;;;;;;-1.48;100.00;95212.31;1021764;28;20031;-70
2021/12/03 02:15:29;;;;;;;20.13;12.80;;;;;;;-1.48;100.00;95207.97;1023709;28;20035;-71
2021/12/03 02:15:59;;;;;;;24.90;14.43;;;;;;;-1.53;100.00;95204.44;1027690;28;20034;-71
2021/12/03 02:16:30;;;;;;;23.17;12.73;;;;;;;-1.46;100.00;95205.19;1029310;28;20045;-72
2021/12/03 02:17:00;;;;;;;24.63;13.68;;;;;;;-1.52;100.00;95214.50;1031349;28;20034;-72
2021/12/03 02:17:31;;;;;;;20.10;12.18;;;;;;;-1.47;100.00;95212.13;1031655;28;20740;-71
2021/12/03 02:18:01;;;;;;;19.52;12.70;;;;;;;-1.48;100.00;95209.75;1023448;28;20031;-70
2021/12/03 02:18:32;;;;;;;20.95;12.82;;;;;;;-1.49;100.00;95208.16;1026678;28;20026;-70
2021/12/03 02:19:02;;;;;;;20.30;13.07;;;;;;;-1.48;100.00;95212.31;1027679;28;20543;-70
2021/12/03 02:19:33;;;;;;;18.83;12.32;;;;;;;-1.51;100.00;95216.09;1026389;28;20042;-70
2021/12/03 02:20:07;;;;;;;20.62;11.94;;;;;;;-1.58;100.00;95196.50;1023969;28;20019;-70
2021/12/03 02:20:46;;;;;;;21.54;12.22;;;;;;;-1.50;100.00;95211.75;1024395;28;20038;-70